sensor_id;sensor_type;location;lat;lon;timestamp;P1;durP1;ratioP1;P2;durP2;ratioP2
21337;SDS011;10827;50.878;4.382;2022-10-20T00:01:21;23.80;;;11.97;;
21337;SDS011;10827;50.878;4.382;2022-10-20T00:03:48;26.40;;;13.60;;
21337;SDS011;10827;50.878;4.382;2022-10-20T00:06:20;22.53;;;12.50;;
21337;SDS011;10827;50.878;4.382;2022-10-20T00:08:48;24.80;;;12.13;;
21337;SDS011;10827;50.878;4.382;2022-10-20T00:11:15;19.70;;;12.43;;
21337;SDS011;10827;50.878;4.382;2022-10-20T00:13:43;24.03;;;12.57;;
21337;SDS011;10827;50.878;4.382;2022-10-20T00:16:09;19.63;;;12.10;;
21337;SDS011;10827;50.878;4.382;2022-10-20T00:18:36;23.23;;;13.07;;
21337;SDS011;10827;50.878;4.382;2022-10-20T00:21:06;25.13;;;12.97;;
21337;SDS011;10827;50.878;4.382;2022-10-20T00:23:33;25.63;;;12.40;;
21337;SDS011;10827;50.878;4.382;2022-10-20T00:26:03;24.20;;;12.20;;
21337;SDS011;10827;50.878;4.382;2022-10-20T00:28:30;20.50;;;11.47;;
21337;SDS011;10827;50.878;4.382;2022-10-20T00:30:56;22.97;;;12.47;;
21337;SDS011;10827;50.878;4.382;2022-10-20T00:33:22;22.63;;;11.90;;
21337;SDS011;10827;50.878;4.382;2022-10-20T00:35:49;22.17;;;12.43;;
21337;SDS011;10827;50.878;4.382;2022-10-20T00:38:15;21.43;;;12.07;;
21337;SDS011;10827;50.878;4.382;2022-10-20T00:40:41;23.60;;;12.60;;
21337;SDS011;10827;50.878;4.382;2022-10-20T00:43:14;25.57;;;12.33;;
21337;SDS011;10827;50.878;4.382;2022-10-20T00:45:41;21.87;;;12.60;;
21337;SDS011;10827;50.878;4.382;2022-10-20T00:48:13;21.97;;;12.57;;
21337;SDS011;10827;50.878;4.382;2022-10-20T00:50:42;22.50;;;12.30;;
21337;SDS011;10827;50.878;4.382;2022-10-20T00:53:12;23.33;;;12.70;;
21337;SDS011;10827;50.878;4.382;2022-10-20T00:55:39;23.60;;;12.23;;
21337;SDS011;10827;50.878;4.382;2022-10-20T00:58:06;20.10;;;12.43;;
21337;SDS011;10827;50.878;4.382;2022-10-20T01:00:32;22.10;;;12.63;;
21337;SDS011;10827;50.878;4.382;2022-10-20T01:03:00;21.37;;;11.93;;
21337;SDS011;10827;50.878;4.382;2022-10-20T01:05:26;25.23;;;12.80;;
21337;SDS011;10827;50.878;4.382;2022-10-20T01:07:52;31.07;;;13.17;;
21337;SDS011;10827;50.878;4.382;2022-10-20T01:10:18;25.37;;;12.57;;
21337;SDS011;10827;50.878;4.382;2022-10-20T01:16:02;25.53;;;12.77;;
21337;SDS011;10827;50.878;4.382;2022-10-20T01:18:13;25.27;;;13.57;;
21337;SDS011;10827;50.878;4.382;2022-10-20T01:21:10;23.03;;;13.70;;
21337;SDS011;10827;50.878;4.382;2022-10-20T01:29:04;23.30;;;12.73;;
21337;SDS011;10827;50.878;4.382;2022-10-20T01:34:55;27.00;;;13.77;;
21337;SDS011;10827;50.878;4.382;2022-10-20T01:37:37;26.20;;;13.03;;
21337;SDS011;10827;50.878;4.382;2022-10-20T01:42:38;35.03;;;13.07;;
21337;SDS011;10827;50.878;4.382;2022-10-20T01:45:05;28.40;;;14.53;;
21337;SDS011;10827;50.878;4.382;2022-10-20T01:47:32;26.77;;;13.43;;
21337;SDS011;10827;50.878;4.382;2022-10-20T01:50:00;20.27;;;12.77;;
21337;SDS011;10827;50.878;4.382;2022-10-20T01:52:29;23.83;;;12.77;;
21337;SDS011;10827;50.878;4.382;2022-10-20T01:54:56;25.47;;;13.53;;
21337;SDS011;10827;50.878;4.382;2022-10-20T01:57:24;24.10;;;12.73;;
21337;SDS011;10827;50.878;4.382;2022-10-20T02:00:00;23.13;;;13.00;;
21337;SDS011;10827;50.878;4.382;2022-10-20T02:11:01;23.43;;;12.90;;
21337;SDS011;10827;50.878;4.382;2022-10-20T02:13:29;19.90;;;12.27;;
21337;SDS011;10827;50.878;4.382;2022-10-20T02:15:56;24.07;;;12.70;;
21337;SDS011;10827;50.878;4.382;2022-10-20T02:18:26;26.40;;;13.47;;
21337;SDS011;10827;50.878;4.382;2022-10-20T02:20:55;25.27;;;13.53;;
21337;SDS011;10827;50.878;4.382;2022-10-20T02:23:25;30.70;;;13.00;;
21337;SDS011;10827;50.878;4.382;2022-10-20T02:25:52;26.53;;;13.93;;
21337;SDS011;10827;50.878;4.382;2022-10-20T02:28:19;27.93;;;13.70;;
21337;SDS011;10827;50.878;4.382;2022-10-20T02:30:46;26.07;;;14.17;;
21337;SDS011;10827;50.878;4.382;2022-10-20T02:33:12;22.83;;;13.63;;
21337;SDS011;10827;50.878;4.382;2022-10-20T02:35:41;25.80;;;14.23;;
21337;SDS011;10827;50.878;4.382;2022-10-20T02:38:13;25.37;;;14.10;;
21337;SDS011;10827;50.878;4.382;2022-10-20T02:40:39;30.20;;;14.47;;
21337;SDS011;10827;50.878;4.382;2022-10-20T02:43:05;22.87;;;13.23;;
21337;SDS011;10827;50.878;4.382;2022-10-20T02:45:30;23.73;;;14.17;;
21337;SDS011;10827;50.878;4.382;2022-10-20T02:47:56;23.50;;;13.97;;
21337;SDS011;10827;50.878;4.382;2022-10-20T02:50:23;28.27;;;13.70;;
21337;SDS011;10827;50.878;4.382;2022-10-20T02:52:49;28.17;;;14.13;;
21337;SDS011;10827;50.878;4.382;2022-10-20T02:55:14;30.47;;;14.03;;
21337;SDS011;10827;50.878;4.382;2022-10-20T02:57:40;23.50;;;13.93;;
21337;SDS011;10827;50.878;4.382;2022-10-20T03:00:06;25.80;;;13.50;;
21337;SDS011;10827;50.878;4.382;2022-10-20T03:02:32;23.03;;;13.20;;
21337;SDS011;10827;50.878;4.382;2022-10-20T03:04:58;28.93;;;13.77;;
21337;SDS011;10827;50.878;4.382;2022-10-20T03:07:24;22.93;;;13.43;;
21337;SDS011;10827;50.878;4.382;2022-10-20T03:09:50;24.10;;;13.27;;
21337;SDS011;10827;50.878;4.382;2022-10-20T03:12:16;30.27;;;14.37;;
21337;SDS011;10827;50.878;4.382;2022-10-20T03:14:42;26.33;;;13.60;;
21337;SDS011;10827;50.878;4.382;2022-10-20T03:17:09;27.43;;;14.13;;
21337;SDS011;10827;50.878;4.382;2022-10-20T03:19:35;29.00;;;13.67;;
21337;SDS011;10827;50.878;4.382;2022-10-20T03:22:01;26.87;;;13.90;;
21337;SDS011;10827;50.878;4.382;2022-10-20T03:24:27;21.40;;;12.17;;
21337;SDS011;10827;50.878;4.382;2022-10-20T03:26:53;25.13;;;13.47;;
21337;SDS011;10827;50.878;4.382;2022-10-20T03:29:19;27.17;;;13.97;;
21337;SDS011;10827;50.878;4.382;2022-10-20T03:31:44;25.87;;;14.07;;
21337;SDS011;10827;50.878;4.382;2022-10-20T03:34:10;23.60;;;13.93;;
21337;SDS011;10827;50.878;4.382;2022-10-20T03:36:37;31.97;;;14.20;;
21337;SDS011;10827;50.878;4.382;2022-10-20T03:39:03;23.87;;;13.53;;
21337;SDS011;10827;50.878;4.382;2022-10-20T03:41:28;32.30;;;14.50;;
21337;SDS011;10827;50.878;4.382;2022-10-20T03:43:54;25.97;;;13.83;;
21337;SDS011;10827;50.878;4.382;2022-10-20T03:46:20;30.03;;;14.53;;
21337;SDS011;10827;50.878;4.382;2022-10-20T03:48:46;24.97;;;13.53;;
21337;SDS011;10827;50.878;4.382;2022-10-20T03:51:12;28.93;;;14.50;;
21337;SDS011;10827;50.878;4.382;2022-10-20T03:53:38;26.93;;;13.97;;
21337;SDS011;10827;50.878;4.382;2022-10-20T03:56:07;27.40;;;14.17;;
21337;SDS011;10827;50.878;4.382;2022-10-20T03:58:34;29.17;;;14.37;;
21337;SDS011;10827;50.878;4.382;2022-10-20T04:01:00;25.00;;;14.33;;
21337;SDS011;10827;50.878;4.382;2022-10-20T04:03:26;27.87;;;14.07;;
21337;SDS011;10827;50.878;4.382;2022-10-20T04:05:52;26.07;;;13.87;;
21337;SDS011;10827;50.878;4.382;2022-10-20T04:08:17;30.40;;;14.30;;
21337;SDS011;10827;50.878;4.382;2022-10-20T04:10:43;27.87;;;14.70;;
21337;SDS011;10827;50.878;4.382;2022-10-20T04:13:09;25.67;;;14.17;;
21337;SDS011;10827;50.878;4.382;2022-10-20T04:15:35;26.13;;;14.77;;
21337;SDS011;10827;50.878;4.382;2022-10-20T04:18:02;22.53;;;13.73;;
21337;SDS011;10827;50.878;4.382;2022-10-20T04:20:28;29.10;;;13.77;;
21337;SDS011;10827;50.878;4.382;2022-10-20T04:22:54;28.27;;;13.73;;
21337;SDS011;10827;50.878;4.382;2022-10-20T04:25:20;29.03;;;13.73;;
21337;SDS011;10827;50.878;4.382;2022-10-20T04:27:45;31.47;;;13.97;;
21337;SDS011;10827;50.878;4.382;2022-10-20T04:30:11;25.50;;;14.00;;
21337;SDS011;10827;50.878;4.382;2022-10-20T04:32:37;27.93;;;14.10;;
21337;SDS011;10827;50.878;4.382;2022-10-20T04:35:03;29.23;;;14.30;;
21337;SDS011;10827;50.878;4.382;2022-10-20T04:37:29;26.27;;;13.93;;
21337;SDS011;10827;50.878;4.382;2022-10-20T04:39:55;28.50;;;14.37;;
21337;SDS011;10827;50.878;4.382;2022-10-20T04:42:21;27.57;;;13.63;;
21337;SDS011;10827;50.878;4.382;2022-10-20T04:44:47;30.37;;;13.87;;
21337;SDS011;10827;50.878;4.382;2022-10-20T04:47:13;25.87;;;13.20;;
21337;SDS011;10827;50.878;4.382;2022-10-20T04:49:39;26.50;;;13.10;;
21337;SDS011;10827;50.878;4.382;2022-10-20T04:52:05;23.80;;;12.97;;
21337;SDS011;10827;50.878;4.382;2022-10-20T04:54:31;25.20;;;13.23;;
21337;SDS011;10827;50.878;4.382;2022-10-20T04:56:57;27.03;;;14.40;;
21337;SDS011;10827;50.878;4.382;2022-10-20T04:59:23;33.30;;;15.97;;
21337;SDS011;10827;50.878;4.382;2022-10-20T05:01:48;26.77;;;14.73;;
21337;SDS011;10827;50.878;4.382;2022-10-20T05:04:14;26.87;;;15.00;;
21337;SDS011;10827;50.878;4.382;2022-10-20T05:06:45;23.60;;;13.97;;
21337;SDS011;10827;50.878;4.382;2022-10-20T05:09:11;29.60;;;14.83;;
21337;SDS011;10827;50.878;4.382;2022-10-20T05:11:39;24.43;;;13.90;;
21337;SDS011;10827;50.878;4.382;2022-10-20T05:14:05;24.80;;;13.60;;
21337;SDS011;10827;50.878;4.382;2022-10-20T05:16:31;26.40;;;13.93;;
21337;SDS011;10827;50.878;4.382;2022-10-20T05:18:58;23.43;;;13.53;;
21337;SDS011;10827;50.878;4.382;2022-10-20T05:21:25;21.53;;;12.87;;
21337;SDS011;10827;50.878;4.382;2022-10-20T05:23:56;27.97;;;13.27;;
21337;SDS011;10827;50.878;4.382;2022-10-20T05:26:24;23.37;;;12.77;;
21337;SDS011;10827;50.878;4.382;2022-10-20T05:28:50;28.93;;;14.17;;
21337;SDS011;10827;50.878;4.382;2022-10-20T05:31:17;30.13;;;13.73;;
21337;SDS011;10827;50.878;4.382;2022-10-20T05:33:45;30.57;;;14.83;;
21337;SDS011;10827;50.878;4.382;2022-10-20T05:36:14;26.23;;;13.40;;
21337;SDS011;10827;50.878;4.382;2022-10-20T05:38:41;25.23;;;13.87;;
21337;SDS011;10827;50.878;4.382;2022-10-20T05:41:16;29.10;;;14.40;;
21337;SDS011;10827;50.878;4.382;2022-10-20T05:43:50;28.17;;;13.33;;
21337;SDS011;10827;50.878;4.382;2022-10-20T05:46:23;29.27;;;13.93;;
21337;SDS011;10827;50.878;4.382;2022-10-20T05:48:51;25.80;;;13.30;;
21337;SDS011;10827;50.878;4.382;2022-10-20T05:51:19;26.90;;;13.53;;
21337;SDS011;10827;50.878;4.382;2022-10-20T05:53:47;25.47;;;12.97;;
21337;SDS011;10827;50.878;4.382;2022-10-20T05:56:14;23.60;;;12.83;;
21337;SDS011;10827;50.878;4.382;2022-10-20T05:58:41;27.90;;;13.30;;
21337;SDS011;10827;50.878;4.382;2022-10-20T06:01:08;23.90;;;12.63;;
21337;SDS011;10827;50.878;4.382;2022-10-20T06:03:47;24.33;;;13.57;;
21337;SDS011;10827;50.878;4.382;2022-10-20T06:06:13;27.97;;;13.87;;
21337;SDS011;10827;50.878;4.382;2022-10-20T06:08:39;25.63;;;14.67;;
21337;SDS011;10827;50.878;4.382;2022-10-20T06:11:06;24.43;;;13.53;;
21337;SDS011;10827;50.878;4.382;2022-10-20T06:13:34;38.43;;;14.40;;
21337;SDS011;10827;50.878;4.382;2022-10-20T06:16:03;28.20;;;13.73;;
21337;SDS011;10827;50.878;4.382;2022-10-20T06:18:31;30.53;;;14.23;;
21337;SDS011;10827;50.878;4.382;2022-10-20T06:20:58;29.17;;;14.63;;
21337;SDS011;10827;50.878;4.382;2022-10-20T06:23:26;27.90;;;14.13;;
21337;SDS011;10827;50.878;4.382;2022-10-20T06:25:52;27.40;;;13.20;;
21337;SDS011;10827;50.878;4.382;2022-10-20T06:28:18;24.53;;;13.00;;
21337;SDS011;10827;50.878;4.382;2022-10-20T06:30:44;27.50;;;12.93;;
21337;SDS011;10827;50.878;4.382;2022-10-20T06:33:10;30.50;;;14.17;;
21337;SDS011;10827;50.878;4.382;2022-10-20T06:35:38;30.97;;;14.27;;
21337;SDS011;10827;50.878;4.382;2022-10-20T06:38:05;33.40;;;13.63;;
21337;SDS011;10827;50.878;4.382;2022-10-20T06:40:30;30.87;;;14.50;;
21337;SDS011;10827;50.878;4.382;2022-10-20T06:42:57;24.73;;;13.80;;
21337;SDS011;10827;50.878;4.382;2022-10-20T06:45:23;33.90;;;13.77;;
21337;SDS011;10827;50.878;4.382;2022-10-20T06:47:49;24.33;;;13.50;;
21337;SDS011;10827;50.878;4.382;2022-10-20T06:50:15;33.37;;;14.03;;
21337;SDS011;10827;50.878;4.382;2022-10-20T06:52:41;30.07;;;14.10;;
21337;SDS011;10827;50.878;4.382;2022-10-20T06:55:07;26.47;;;12.93;;
21337;SDS011;10827;50.878;4.382;2022-10-20T06:57:33;32.43;;;14.13;;
21337;SDS011;10827;50.878;4.382;2022-10-20T06:59:59;25.87;;;13.77;;
21337;SDS011;10827;50.878;4.382;2022-10-20T07:02:25;26.27;;;12.57;;
21337;SDS011;10827;50.878;4.382;2022-10-20T07:04:51;20.53;;;11.67;;
21337;SDS011;10827;50.878;4.382;2022-10-20T07:07:17;23.97;;;12.57;;
21337;SDS011;10827;50.878;4.382;2022-10-20T07:09:43;20.50;;;10.47;;
21337;SDS011;10827;50.878;4.382;2022-10-20T07:12:09;16.80;;;9.73;;
21337;SDS011;10827;50.878;4.382;2022-10-20T07:14:35;26.47;;;9.70;;
21337;SDS011;10827;50.878;4.382;2022-10-20T07:17:02;21.43;;;11.97;;
21337;SDS011;10827;50.878;4.382;2022-10-20T07:19:28;20.27;;;11.07;;
21337;SDS011;10827;50.878;4.382;2022-10-20T07:21:54;16.47;;;9.57;;
21337;SDS011;10827;50.878;4.382;2022-10-20T07:24:20;17.30;;;9.90;;
21337;SDS011;10827;50.878;4.382;2022-10-20T07:26:46;20.03;;;9.10;;
21337;SDS011;10827;50.878;4.382;2022-10-20T07:29:12;16.10;;;8.57;;
21337;SDS011;10827;50.878;4.382;2022-10-20T07:31:39;25.57;;;9.00;;
21337;SDS011;10827;50.878;4.382;2022-10-20T07:34:08;17.67;;;8.73;;
21337;SDS011;10827;50.878;4.382;2022-10-20T07:36:35;28.00;;;9.27;;
21337;SDS011;10827;50.878;4.382;2022-10-20T07:39:03;18.90;;;9.80;;
21337;SDS011;10827;50.878;4.382;2022-10-20T07:41:30;14.77;;;8.77;;
21337;SDS011;10827;50.878;4.382;2022-10-20T07:43:56;21.40;;;9.60;;
21337;SDS011;10827;50.878;4.382;2022-10-20T07:46:22;14.30;;;9.03;;
21337;SDS011;10827;50.878;4.382;2022-10-20T07:48:49;18.03;;;8.70;;
21337;SDS011;10827;50.878;4.382;2022-10-20T07:53:41;17.73;;;7.17;;
21337;SDS011;10827;50.878;4.382;2022-10-20T07:56:08;19.33;;;8.63;;
21337;SDS011;10827;50.878;4.382;2022-10-20T07:58:34;15.57;;;8.80;;
21337;SDS011;10827;50.878;4.382;2022-10-20T08:01:00;33.77;;;12.53;;
21337;SDS011;10827;50.878;4.382;2022-10-20T08:03:26;18.63;;;9.37;;
21337;SDS011;10827;50.878;4.382;2022-10-20T08:05:52;15.83;;;9.27;;
21337;SDS011;10827;50.878;4.382;2022-10-20T08:08:18;13.00;;;8.90;;
21337;SDS011;10827;50.878;4.382;2022-10-20T08:10:44;21.57;;;8.60;;
21337;SDS011;10827;50.878;4.382;2022-10-20T08:13:10;21.20;;;9.37;;
21337;SDS011;10827;50.878;4.382;2022-10-20T08:15:36;18.23;;;8.87;;
21337;SDS011;10827;50.878;4.382;2022-10-20T08:18:02;15.97;;;8.87;;
21337;SDS011;10827;50.878;4.382;2022-10-20T08:20:29;21.73;;;9.00;;
21337;SDS011;10827;50.878;4.382;2022-10-20T08:22:56;21.23;;;10.27;;
21337;SDS011;10827;50.878;4.382;2022-10-20T08:25:22;17.93;;;9.87;;
21337;SDS011;10827;50.878;4.382;2022-10-20T08:27:48;16.77;;;9.73;;
21337;SDS011;10827;50.878;4.382;2022-10-20T08:30:14;16.90;;;9.07;;
21337;SDS011;10827;50.878;4.382;2022-10-20T08:32:40;18.50;;;10.23;;
21337;SDS011;10827;50.878;4.382;2022-10-20T08:35:06;19.70;;;9.27;;
21337;SDS011;10827;50.878;4.382;2022-10-20T08:37:32;20.53;;;9.20;;
21337;SDS011;10827;50.878;4.382;2022-10-20T08:40:00;15.53;;;9.57;;
21337;SDS011;10827;50.878;4.382;2022-10-20T08:42:29;16.67;;;10.33;;
21337;SDS011;10827;50.878;4.382;2022-10-20T08:45:01;22.77;;;10.47;;
21337;SDS011;10827;50.878;4.382;2022-10-20T08:47:30;20.23;;;10.47;;
21337;SDS011;10827;50.878;4.382;2022-10-20T08:50:01;25.37;;;11.53;;
21337;SDS011;10827;50.878;4.382;2022-10-20T08:52:29;20.60;;;11.07;;
21337;SDS011;10827;50.878;4.382;2022-10-20T08:54:55;23.37;;;11.30;;
21337;SDS011;10827;50.878;4.382;2022-10-20T08:57:23;24.93;;;11.53;;
21337;SDS011;10827;50.878;4.382;2022-10-20T08:59:52;22.97;;;11.80;;
21337;SDS011;10827;50.878;4.382;2022-10-20T09:02:19;21.57;;;11.63;;
21337;SDS011;10827;50.878;4.382;2022-10-20T09:04:50;22.07;;;12.70;;
21337;SDS011;10827;50.878;4.382;2022-10-20T09:10:19;21.47;;;12.10;;
21337;SDS011;10827;50.878;4.382;2022-10-20T09:12:56;26.63;;;11.73;;
21337;SDS011;10827;50.878;4.382;2022-10-20T09:15:23;25.23;;;12.50;;
21337;SDS011;10827;50.878;4.382;2022-10-20T09:18:02;22.70;;;11.53;;
21337;SDS011;10827;50.878;4.382;2022-10-20T09:20:55;24.17;;;11.77;;
21337;SDS011;10827;50.878;4.382;2022-10-20T09:23:28;24.63;;;12.40;;
21337;SDS011;10827;50.878;4.382;2022-10-20T09:26:01;16.37;;;10.63;;
21337;SDS011;10827;50.878;4.382;2022-10-20T09:28:27;22.73;;;10.30;;
21337;SDS011;10827;50.878;4.382;2022-10-20T09:30:53;25.73;;;11.57;;
21337;SDS011;10827;50.878;4.382;2022-10-20T09:33:28;25.67;;;12.87;;
21337;SDS011;10827;50.878;4.382;2022-10-20T09:35:55;25.83;;;12.03;;
21337;SDS011;10827;50.878;4.382;2022-10-20T09:38:27;24.40;;;11.60;;
21337;SDS011;10827;50.878;4.382;2022-10-20T09:46:21;24.13;;;12.00;;
21337;SDS011;10827;50.878;4.382;2022-10-20T09:48:49;21.37;;;11.67;;
21337;SDS011;10827;50.878;4.382;2022-10-20T09:51:17;22.67;;;12.53;;
21337;SDS011;10827;50.878;4.382;2022-10-20T09:53:52;21.13;;;12.33;;
21337;SDS011;10827;50.878;4.382;2022-10-20T09:56:28;23.53;;;12.53;;
21337;SDS011;10827;50.878;4.382;2022-10-20T09:58:58;19.17;;;12.00;;
21337;SDS011;10827;50.878;4.382;2022-10-20T10:01:25;23.80;;;11.83;;
21337;SDS011;10827;50.878;4.382;2022-10-20T10:03:53;22.47;;;11.67;;
21337;SDS011;10827;50.878;4.382;2022-10-20T10:12:16;24.43;;;11.43;;
21337;SDS011;10827;50.878;4.382;2022-10-20T10:17:32;15.07;;;10.00;;
21337;SDS011;10827;50.878;4.382;2022-10-20T10:20:00;15.70;;;10.17;;
21337;SDS011;10827;50.878;4.382;2022-10-20T10:22:29;23.20;;;11.20;;
21337;SDS011;10827;50.878;4.382;2022-10-20T10:24:55;20.47;;;11.17;;
21337;SDS011;10827;50.878;4.382;2022-10-20T10:27:32;23.07;;;10.77;;
21337;SDS011;10827;50.878;4.382;2022-10-20T10:32:44;22.07;;;11.67;;
21337;SDS011;10827;50.878;4.382;2022-10-20T10:37:41;26.17;;;14.17;;
21337;SDS011;10827;50.878;4.382;2022-10-20T10:40:15;17.60;;;10.53;;
21337;SDS011;10827;50.878;4.382;2022-10-20T10:43:27;19.20;;;9.70;;
21337;SDS011;10827;50.878;4.382;2022-10-20T10:45:59;16.73;;;10.27;;
21337;SDS011;10827;50.878;4.382;2022-10-20T10:49:00;20.93;;;10.37;;
21337;SDS011;10827;50.878;4.382;2022-10-20T10:59:45;19.60;;;9.80;;
21337;SDS011;10827;50.878;4.382;2022-10-20T11:07:15;18.80;;;9.23;;
21337;SDS011;10827;50.878;4.382;2022-10-20T11:20:09;21.80;;;9.87;;
21337;SDS011;10827;50.878;4.382;2022-10-20T11:25:48;18.67;;;9.20;;
21337;SDS011;10827;50.878;4.382;2022-10-20T11:29:04;15.73;;;8.77;;
21337;SDS011;10827;50.878;4.382;2022-10-20T11:34:04;18.90;;;9.15;;
21337;SDS011;10827;50.878;4.382;2022-10-20T11:36:43;19.50;;;8.57;;
21337;SDS011;10827;50.878;4.382;2022-10-20T11:39:24;17.83;;;7.97;;
21337;SDS011;10827;50.878;4.382;2022-10-20T11:41:57;17.40;;;8.57;;
21337;SDS011;10827;50.878;4.382;2022-10-20T11:44:27;22.02;;;8.52;;
21337;SDS011;10827;50.878;4.382;2022-10-20T11:47:05;17.60;;;7.67;;
21337;SDS011;10827;50.878;4.382;2022-10-20T11:49:36;18.98;;;7.47;;
21337;SDS011;10827;50.878;4.382;2022-10-20T11:54:59;12.20;;;6.07;;
21337;SDS011;10827;50.878;4.382;2022-10-20T12:13:18;17.48;;;5.45;;
21337;SDS011;10827;50.878;4.382;2022-10-20T12:15:48;14.45;;;5.68;;
21337;SDS011;10827;50.878;4.382;2022-10-20T12:18:25;10.52;;;5.22;;
21337;SDS011;10827;50.878;4.382;2022-10-20T12:20:54;12.25;;;5.70;;
21337;SDS011;10827;50.878;4.382;2022-10-20T12:28:57;12.57;;;5.18;;
21337;SDS011;10827;50.878;4.382;2022-10-20T12:32:09;17.65;;;5.10;;
21337;SDS011;10827;50.878;4.382;2022-10-20T12:34:28;14.30;;;4.65;;
21337;SDS011;10827;50.878;4.382;2022-10-20T12:37:07;10.88;;;4.90;;
21337;SDS011;10827;50.878;4.382;2022-10-20T12:39:39;11.23;;;4.38;;
21337;SDS011;10827;50.878;4.382;2022-10-20T12:42:05;11.05;;;4.40;;
21337;SDS011;10827;50.878;4.382;2022-10-20T12:44:40;7.68;;;3.72;;
21337;SDS011;10827;50.878;4.382;2022-10-20T12:47:08;8.70;;;3.78;;
21337;SDS011;10827;50.878;4.382;2022-10-20T12:49:54;9.88;;;4.88;;
21337;SDS011;10827;50.878;4.382;2022-10-20T12:52:27;9.15;;;3.90;;
21337;SDS011;10827;50.878;4.382;2022-10-20T12:57:35;12.90;;;4.18;;
21337;SDS011;10827;50.878;4.382;2022-10-20T13:02:55;9.48;;;3.42;;
21337;SDS011;10827;50.878;4.382;2022-10-20T13:10:48;7.60;;;2.97;;
21337;SDS011;10827;50.878;4.382;2022-10-20T13:23:11;7.75;;;1.98;;
21337;SDS011;10827;50.878;4.382;2022-10-20T13:25:43;8.25;;;4.03;;
21337;SDS011;10827;50.878;4.382;2022-10-20T13:33:19;5.93;;;3.65;;
21337;SDS011;10827;50.878;4.382;2022-10-20T13:35:55;7.85;;;3.65;;
21337;SDS011;10827;50.878;4.382;2022-10-20T13:38:37;9.20;;;3.80;;
21337;SDS011;10827;50.878;4.382;2022-10-20T13:44:22;10.02;;;3.95;;
21337;SDS011;10827;50.878;4.382;2022-10-20T13:47:06;12.45;;;3.90;;
21337;SDS011;10827;50.878;4.382;2022-10-20T13:49:53;9.20;;;3.70;;
21337;SDS011;10827;50.878;4.382;2022-10-20T13:52:33;7.53;;;3.50;;
21337;SDS011;10827;50.878;4.382;2022-10-20T13:55:01;9.10;;;3.40;;
21337;SDS011;10827;50.878;4.382;2022-10-20T13:57:32;6.15;;;3.10;;
21337;SDS011;10827;50.878;4.382;2022-10-20T14:00:19;10.85;;;3.88;;
21337;SDS011;10827;50.878;4.382;2022-10-20T14:02:51;10.40;;;3.53;;
21337;SDS011;10827;50.878;4.382;2022-10-20T14:05:19;7.38;;;3.10;;
21337;SDS011;10827;50.878;4.382;2022-10-20T14:07:46;8.73;;;3.40;;
21337;SDS011;10827;50.878;4.382;2022-10-20T14:13:06;5.80;;;3.05;;
21337;SDS011;10827;50.878;4.382;2022-10-20T14:15:33;8.75;;;3.40;;
21337;SDS011;10827;50.878;4.382;2022-10-20T14:18:01;7.63;;;3.00;;
21337;SDS011;10827;50.878;4.382;2022-10-20T14:20:32;8.77;;;3.20;;
21337;SDS011;10827;50.878;4.382;2022-10-20T14:23:01;8.88;;;3.20;;
21337;SDS011;10827;50.878;4.382;2022-10-20T14:25:28;7.65;;;2.78;;
21337;SDS011;10827;50.878;4.382;2022-10-20T14:27:55;9.60;;;3.00;;
21337;SDS011;10827;50.878;4.382;2022-10-20T14:30:25;5.97;;;2.83;;
21337;SDS011;10827;50.878;4.382;2022-10-20T14:32:51;9.15;;;5.00;;
21337;SDS011;10827;50.878;4.382;2022-10-20T14:35:31;6.80;;;3.60;;
21337;SDS011;10827;50.878;4.382;2022-10-20T14:38:05;6.13;;;2.97;;
21337;SDS011;10827;50.878;4.382;2022-10-20T14:40:39;10.50;;;4.20;;
21337;SDS011;10827;50.878;4.382;2022-10-20T14:43:13;7.07;;;2.70;;
21337;SDS011;10827;50.878;4.382;2022-10-20T14:45:59;5.82;;;3.53;;
21337;SDS011;10827;50.878;4.382;2022-10-20T14:48:33;11.25;;;3.88;;
21337;SDS011;10827;50.878;4.382;2022-10-20T14:56:47;8.02;;;2.95;;
21337;SDS011;10827;50.878;4.382;2022-10-20T14:59:18;6.40;;;2.83;;
21337;SDS011;10827;50.878;4.382;2022-10-20T15:02:31;6.32;;;2.90;;
21337;SDS011;10827;50.878;4.382;2022-10-20T15:04:38;8.52;;;2.33;;
21337;SDS011;10827;50.878;4.382;2022-10-20T15:07:21;4.13;;;2.25;;
21337;SDS011;10827;50.878;4.382;2022-10-20T15:12:17;7.20;;;2.78;;
21337;SDS011;10827;50.878;4.382;2022-10-20T15:14:52;15.52;;;3.42;;
21337;SDS011;10827;50.878;4.382;2022-10-20T15:20:02;12.32;;;3.42;;
21337;SDS011;10827;50.878;4.382;2022-10-20T15:22:54;4.60;;;2.70;;
21337;SDS011;10827;50.878;4.382;2022-10-20T15:25:21;6.75;;;2.85;;
21337;SDS011;10827;50.878;4.382;2022-10-20T15:27:51;8.85;;;2.60;;
21337;SDS011;10827;50.878;4.382;2022-10-20T15:30:17;9.65;;;3.13;;
21337;SDS011;10827;50.878;4.382;2022-10-20T15:32:45;7.65;;;2.65;;
21337;SDS011;10827;50.878;4.382;2022-10-20T15:35:11;30.85;;;4.90;;
21337;SDS011;10827;50.878;4.382;2022-10-20T15:37:47;15.10;;;4.70;;
21337;SDS011;10827;50.878;4.382;2022-10-20T15:40:13;15.25;;;3.78;;
21337;SDS011;10827;50.878;4.382;2022-10-20T15:42:39;6.43;;;3.10;;
21337;SDS011;10827;50.878;4.382;2022-10-20T15:45:23;12.55;;;4.15;;
21337;SDS011;10827;50.878;4.382;2022-10-20T15:47:49;12.27;;;3.33;;
21337;SDS011;10827;50.878;4.382;2022-10-20T15:50:15;5.72;;;2.90;;
21337;SDS011;10827;50.878;4.382;2022-10-20T15:52:42;6.30;;;3.42;;
21337;SDS011;10827;50.878;4.382;2022-10-20T15:57:49;10.80;;;3.35;;
21337;SDS011;10827;50.878;4.382;2022-10-20T16:00:17;7.88;;;2.60;;
21337;SDS011;10827;50.878;4.382;2022-10-20T16:02:44;9.52;;;3.60;;
21337;SDS011;10827;50.878;4.382;2022-10-20T16:05:10;8.32;;;3.60;;
21337;SDS011;10827;50.878;4.382;2022-10-20T16:07:36;6.65;;;3.20;;
21337;SDS011;10827;50.878;4.382;2022-10-20T16:10:03;6.07;;;2.80;;
21337;SDS011;10827;50.878;4.382;2022-10-20T16:12:29;7.80;;;2.88;;
21337;SDS011;10827;50.878;4.382;2022-10-20T16:14:56;20.17;;;5.80;;
21337;SDS011;10827;50.878;4.382;2022-10-20T16:17:22;42.45;;;20.50;;
21337;SDS011;10827;50.878;4.382;2022-10-20T16:19:47;8.32;;;3.83;;
21337;SDS011;10827;50.878;4.382;2022-10-20T16:22:13;27.38;;;12.52;;
21337;SDS011;10827;50.878;4.382;2022-10-20T16:24:39;8.68;;;4.10;;
21337;SDS011;10827;50.878;4.382;2022-10-20T16:27:05;8.43;;;3.42;;
21337;SDS011;10827;50.878;4.382;2022-10-20T16:29:31;8.30;;;4.28;;
21337;SDS011;10827;50.878;4.382;2022-10-20T16:31:58;12.93;;;4.47;;
21337;SDS011;10827;50.878;4.382;2022-10-20T16:34:25;14.32;;;5.03;;
21337;SDS011;10827;50.878;4.382;2022-10-20T16:36:51;12.98;;;4.90;;
21337;SDS011;10827;50.878;4.382;2022-10-20T16:39:17;16.30;;;4.40;;
21337;SDS011;10827;50.878;4.382;2022-10-20T16:41:44;7.93;;;4.40;;
21337;SDS011;10827;50.878;4.382;2022-10-20T16:44:13;9.32;;;4.05;;
21337;SDS011;10827;50.878;4.382;2022-10-20T16:46:39;9.27;;;3.63;;
21337;SDS011;10827;50.878;4.382;2022-10-20T16:49:05;10.10;;;4.13;;
21337;SDS011;10827;50.878;4.382;2022-10-20T16:51:31;16.35;;;5.50;;
21337;SDS011;10827;50.878;4.382;2022-10-20T16:53:56;12.43;;;4.20;;
21337;SDS011;10827;50.878;4.382;2022-10-20T16:56:22;9.00;;;3.60;;
21337;SDS011;10827;50.878;4.382;2022-10-20T16:58:49;9.07;;;4.20;;
21337;SDS011;10827;50.878;4.382;2022-10-20T17:01:15;12.15;;;4.57;;
21337;SDS011;10827;50.878;4.382;2022-10-20T17:03:43;14.65;;;4.30;;
21337;SDS011;10827;50.878;4.382;2022-10-20T17:06:14;9.55;;;4.28;;